Asherton, Texas
Current Conditions -  °F | °C
As of 12:15 AM on Thursday 23 Oct 2014 (Local Time) from KCZT Reporting Station
Overcast Overcast  
Wind Chill: 73°   Ceiling: 6500
Heat Index: 73°   Visibility: 10mi
Dew Point: 61°   Wind: 7mph
Humidity: 65%   Direction: 150°SSE
Pressure: 30.07"   Gusts: NA
Location:  28.44°N, 99.76°W
Report Text: KCZT 230515Z AUTO 15006KT 10SM OVC065 23/16 A3007 RMK AO2
Loading
Personal Weather Stations






























Interactive Weather Map
Tropical Storm Tracking
New forecast layout! Learn more

10-Day Weather Forecast

Advertisements
Track Severe Weather on mobile